Blue Star 1 — SWET — position and weather

sailwx.info

Track history (hours):
 
Tides and Currents Weather Stations Pressure Air Temp Water Temp Dewpoint Dewpoint Depression Visibility Wind Speed Wind Dir Waves Ship Positions

Blue Star 1

Last reported at 2014-Oct-30 23:12 UTC. Time now 2014-Oct-31 09:47 UTC.
Position N 38°03' E 025°12'.

Length 176 m; draft 6.5 m.

Type: Passenger vessel. MMSI: 239710000.

Date/timePositionNaut miles runAvg speedWind from/ knotsBaromVisibWave heightAir tempDewpointWater temp
2014-Oct-30 23:12N 38°03' E 025°12'1219.0
2014-Oct-30 22:33N 38°02' E 024°56'1918.0
2014-Oct-30 21:29N 37°54' E 024°33'2118.5
2014-Oct-30 20:19N 37°41' E 024°12'2217.9
2014-Oct-30 19:06N 37°38' E 023°45'1019.3
2014-Oct-30 18:33N 37°48' E 023°38'9 8.9
2014-Oct-30 17:33N 37°56' E 023°38'0 0.0
2014-Oct-30 16:31N 37°56' E 023°38'0 0.0
2014-Oct-30 15:31N 37°56' E 023°38'0 0.0
2014-Oct-30 14:33N 37°56' E 023°38'0 0.0
2014-Oct-30 13:34N 37°56' E 023°38'0 0.0
2014-Oct-30 12:33N 37°56' E 023°38'0 0.0
2014-Oct-30 11:32N 37°56' E 023°38'0 0.0
2014-Oct-30 10:32N 37°56' E 023°38'0 0.0
2014-Oct-30 09:32N 37°56' E 023°38'0 0.0
2014-Oct-30 08:31N 37°56' E 023°38'0 0.0
2014-Oct-30 07:31N 37°56' E 023°38'0 0.0
2014-Oct-30 06:25N 37°56' E 023°38'0 0.0
2014-Oct-30 05:31N 37°56' E 023°38'2 2.3
2014-Oct-30 04:34N 37°54' E 023°38'2120.7
2014-Oct-30 03:33N 37°38' E 023°53'3121.2
2014-Oct-30 02:05N 37°51' E 024°29'36 1.3
2014-Oct-28 23:18N 38°05' E 025°11'3117.9
2014-Oct-28 21:32N 37°54' E 024°33'2218.0
2014-Oct-28 20:20N 37°40' E 024°12'2217.7
2014-Oct-28 19:06N 37°39' E 023°45'1019.0
2014-Oct-28 18:33N 37°48' E 023°37'9 8.3
2014-Oct-28 17:31N 37°56' E 023°38'0 0.0
2014-Oct-28 16:33N 37°56' E 023°38'0 0.0
2014-Oct-28 15:33N 37°56' E 023°38'0 0.0
2014-Oct-28 14:33N 37°56' E 023°38'0 0.0
2014-Oct-28 13:33N 37°56' E 023°38'0 0.0
2014-Oct-28 12:33N 37°56' E 023°38'0 0.0
2014-Oct-28 11:33N 37°56' E 023°38'0 0.0
2014-Oct-28 10:33N 37°56' E 023°38'0 0.0
2014-Oct-28 09:33N 37°56' E 023°38'0 0.0
2014-Oct-28 08:33N 37°56' E 023°38'0 0.0
2014-Oct-28 07:33N 37°56' E 023°38'0 0.0
2014-Oct-28 06:29N 37°56' E 023°38'0 0.0
2014-Oct-28 05:29N 37°56' E 023°38'3 3.0
2014-Oct-28 04:33N 37°54' E 023°38'2121.2
2014-Oct-28 03:33N 37°38' E 023°56'82 3.0
2014-Oct-27 00:20N 38°08' E 025°33'1718.2
2014-Oct-26 23:24N 38°06' E 025°11'3217.4
2014-Oct-26 21:33N 37°54' E 024°33'2518.1
2014-Oct-26 20:09N 37°38' E 024°08'1718.7
2014-Oct-26 19:14N 37°38' E 023°47'1318.6
2014-Oct-26 18:33N 37°48' E 023°38'8 8.3
2014-Oct-26 17:33N 37°56' E 023°38'0 0.0
2014-Oct-26 16:32N 37°56' E 023°38'0 0.0
2014-Oct-26 15:31N 37°56' E 023°38'0 0.0
2014-Oct-26 14:31N 37°56' E 023°38'0 0.0
2014-Oct-26 13:31N 37°56' E 023°38'0 0.0
2014-Oct-26 12:31N 37°56' E 023°38'0 0.0
2014-Oct-26 11:31N 37°56' E 023°38'0 0.0
2014-Oct-26 10:31N 37°56' E 023°38'0 0.0
2014-Oct-26 09:31N 37°56' E 023°38'0 0.0
2014-Oct-26 08:31N 37°56' E 023°38'0 0.0
2014-Oct-26 07:31N 37°56' E 023°38'0 0.0
2014-Oct-26 06:31N 37°56' E 023°38'0 0.0
2014-Oct-26 05:30N 37°56' E 023°38'0 0.0
2014-Oct-26 04:33N 37°56' E 023°38'0 0.0
2014-Oct-26 03:33N 37°56' E 023°38'0 0.0
2014-Oct-26 02:33N 37°56' E 023°38'0 0.0
2014-Oct-26 01:33N 37°56' E 023°38'0 0.0
2014-Oct-26 00:33N 37°56' E 023°38'0 0.0
2014-Oct-25 23:33N 37°56' E 023°38'0 0.0
2014-Oct-25 22:33N 37°56' E 023°38'0 0.0
2014-Oct-25 21:33N 37°56' E 023°38'0 0.0
2014-Oct-25 20:33N 37°56' E 023°38'0 0.0
2014-Oct-25 19:32N 37°56' E 023°38'0 0.0
2014-Oct-25 18:32N 37°56' E 023°38'0 0.0
2014-Oct-25 17:33N 37°56' E 023°38'0 0.0
2014-Oct-25 16:31N 37°56' E 023°38'0 0.0
2014-Oct-25 15:31N 37°56' E 023°38'0 0.0
2014-Oct-25 14:28N 37°56' E 023°38'0 0.0
2014-Oct-25 13:31N 37°56' E 023°38'0 0.0
2014-Oct-25 12:31N 37°56' E 023°38'0 0.0
2014-Oct-25 11:33N 37°56' E 023°38'0 0.0
2014-Oct-25 10:33N 37°56' E 023°38'0 0.0
2014-Oct-25 09:33N 37°56' E 023°38'0 0.0
2014-Oct-25 08:33N 37°56' E 023°38'0 0.0
2014-Oct-25 07:33N 37°56' E 023°38'0 0.0
2014-Oct-25 06:33N 37°56' E 023°38'0 0.0
2014-Oct-25 05:33N 37°56' E 023°38'1111.3
2014-Oct-25 04:33N 37°46' E 023°42'2924.8
2014-Oct-25 03:24N 37°25' E 024°07'1821.6
2014-Oct-25 02:33N 37°15' E 024°26'2323.4
2014-Oct-25 01:33N 37°00' E 024°49'2524.7
2014-Oct-25 00:33N 36°43' E 025°12'2323.1
2014-Oct-24 23:33N 36°23' E 025°26'9 8.6
2014-Oct-24 22:33N 36°32' E 025°23'2424.4
2014-Oct-24 21:33N 36°49' E 025°44'2424.2
2014-Oct-24 20:33N 37°03' E 026°09'2424.1
2014-Oct-24 19:33N 37°16' E 026°35'8 7.4
2014-Oct-24 18:32N 37°14' E 026°44'7 0.4
2014-Oct-24 02:25N 37°16' E 026°36'2 2.4
2014-Oct-24 01:33N 37°15' E 026°34'2323.0
2014-Oct-24 00:34N 37°03' E 026°10'2322.7
2014-Oct-23 23:34N 36°51' E 025°46'2222.3
2014-Oct-23 22:34N 36°35' E 025°27'1111.4
2014-Oct-23 21:34N 36°23' E 025°26'1413.8
2014-Oct-23 20:34N 36°35' E 025°18'2221.6
2014-Oct-23 19:34N 36°52' E 025°01'2322.6
2014-Oct-23 18:33N 37°08' E 024°40'2221.7
2014-Oct-23 17:33N 37°19' E 024°17'2621.9
2014-Oct-23 16:21N 37°35' E 023°50'1721.7
2014-Oct-23 15:33N 37°49' E 023°37'8 7.6
2014-Oct-23 14:33N 37°56' E 023°38'0 0.0
2014-Oct-23 13:33N 37°56' E 023°38'0 0.0
2014-Oct-23 12:33N 37°56' E 023°38'0 0.0
2014-Oct-23 11:33N 37°56' E 023°38'0 0.0
2014-Oct-23 10:33N 37°56' E 023°38'0 0.0
2014-Oct-23 09:33N 37°56' E 023°38'0 0.0
2014-Oct-23 08:33N 37°56' E 023°38'0 0.0
2014-Oct-23 07:33N 37°56' E 023°38'0 0.0
2014-Oct-23 06:34N 37°56' E 023°38'0 0.0
2014-Oct-23 05:33N 37°56' E 023°38'3 3.0
2014-Oct-23 04:33N 37°53' E 023°37'2221.3
2014-Oct-23 03:30N 37°36' E 023°55'2020.8
2014-Oct-23 02:33N 37°22' E 024°14'2020.3
2014-Oct-23 01:33N 37°12' E 024°35'2222.0
2014-Oct-23 00:33N 36°56' E 024°54'2221.9
2014-Oct-22 23:34N 36°41' E 025°13'2019.9
2014-Oct-22 22:34N 36°23' E 025°26'6 5.8
2014-Oct-22 21:34N 36°28' E 025°21'2121.1
2014-Oct-22 20:34N 36°36' E 025°45'2221.5
2014-Oct-22 19:34N 36°43' E 026°11'9 0.4
2014-Oct-22 00:27N 36°45' E 026°21'2022.5
2014-Oct-21 23:33N 36°39' E 025°58'2222.0
2014-Oct-21 22:33N 36°33' E 025°31'1010.4
2014-Oct-21 21:33N 36°23' E 025°26'1212.1
2014-Oct-21 20:33N 36°34' E 025°18'2221.7
2014-Oct-21 19:33N 36°51' E 025°02'2222.1
2014-Oct-21 18:33N 37°06' E 024°42'2222.0
2014-Oct-21 17:33N 37°18' E 024°19'2221.9
2014-Oct-21 16:33N 37°32' E 023°57'2121.2
2014-Oct-21 15:33N 37°47' E 023°39'9 9.4
2014-Oct-21 14:33N 37°56' E 023°38'0 0.0
2014-Oct-21 13:33N 37°56' E 023°38'0 0.0
2014-Oct-21 12:33N 37°56' E 023°38'0 0.0
2014-Oct-21 11:33N 37°56' E 023°38'0 0.0
2014-Oct-21 10:33N 37°56' E 023°38'0 0.0
2014-Oct-21 09:33N 37°56' E 023°38'0 0.0
2014-Oct-21 08:33N 37°56' E 023°38'0 0.0
2014-Oct-21 07:33N 37°56' E 023°38'0 0.0
2014-Oct-21 06:33N 37°56' E 023°38'0 0.0
2014-Oct-21 05:33N 37°56' E 023°38'0 0.0
2014-Oct-21 04:33N 37°56' E 023°38'1716.7
2014-Oct-21 03:33N 37°41' E 023°47'8822.0
2014-Oct-20 23:32N 36°44' E 025°11'  
Track history (hours):
 
Tides and Currents Weather Stations Pressure Air Temp Water Temp Dewpoint Dewpoint Depression Visibility Wind Speed Wind Dir Waves Ship Positions

Blue Star 1

Last reported at 2014-Oct-30 23:12 UTC. Time now 2014-Oct-31 09:47 UTC.
Position N 38°03' E 025°12'.

Length 176 m; draft 6.5 m.

Type: Passenger vessel. MMSI: 239710000.

Date/timePositionNaut miles runAvg speedWind from/ knotsBaromVisibWave heightAir tempDewpointWater temp
2014-Oct-30 23:12N 38°03' E 025°12'1219.0
2014-Oct-30 22:33N 38°02' E 024°56'1918.0
2014-Oct-30 21:29N 37°54' E 024°33'2118.5
2014-Oct-30 20:19N 37°41' E 024°12'2217.9
2014-Oct-30 19:06N 37°38' E 023°45'1019.3
2014-Oct-30 18:33N 37°48' E 023°38'9 8.9
2014-Oct-30 17:33N 37°56' E 023°38'0 0.0
2014-Oct-30 16:31N 37°56' E 023°38'0 0.0
2014-Oct-30 15:31N 37°56' E 023°38'0 0.0
2014-Oct-30 14:33N 37°56' E 023°38'0 0.0
2014-Oct-30 13:34N 37°56' E 023°38'0 0.0
2014-Oct-30 12:33N 37°56' E 023°38'0 0.0
2014-Oct-30 11:32N 37°56' E 023°38'0 0.0
2014-Oct-30 10:32N 37°56' E 023°38'0 0.0
2014-Oct-30 09:32N 37°56' E 023°38'0 0.0
2014-Oct-30 08:31N 37°56' E 023°38'0 0.0
2014-Oct-30 07:31N 37°56' E 023°38'0 0.0
2014-Oct-30 06:25N 37°56' E 023°38'0 0.0
2014-Oct-30 05:31N 37°56' E 023°38'2 2.3
2014-Oct-30 04:34N 37°54' E 023°38'2120.7
2014-Oct-30 03:33N 37°38' E 023°53'3121.2
2014-Oct-30 02:05N 37°51' E 024°29'36 1.3
2014-Oct-28 23:18N 38°05' E 025°11'3117.9
2014-Oct-28 21:32N 37°54' E 024°33'2218.0
2014-Oct-28 20:20N 37°40' E 024°12'2217.7
2014-Oct-28 19:06N 37°39' E 023°45'1019.0
2014-Oct-28 18:33N 37°48' E 023°37'9 8.3
2014-Oct-28 17:31N 37°56' E 023°38'0 0.0
2014-Oct-28 16:33N 37°56' E 023°38'0 0.0
2014-Oct-28 15:33N 37°56' E 023°38'0 0.0
2014-Oct-28 14:33N 37°56' E 023°38'0 0.0
2014-Oct-28 13:33N 37°56' E 023°38'0 0.0
2014-Oct-28 12:33N 37°56' E 023°38'0 0.0
2014-Oct-28 11:33N 37°56' E 023°38'0 0.0
2014-Oct-28 10:33N 37°56' E 023°38'0 0.0
2014-Oct-28 09:33N 37°56' E 023°38'0 0.0
2014-Oct-28 08:33N 37°56' E 023°38'0 0.0
2014-Oct-28 07:33N 37°56' E 023°38'0 0.0
2014-Oct-28 06:29N 37°56' E 023°38'0 0.0
2014-Oct-28 05:29N 37°56' E 023°38'3 3.0
2014-Oct-28 04:33N 37°54' E 023°38'2121.2
2014-Oct-28 03:33N 37°38' E 023°56'82 3.0
2014-Oct-27 00:20N 38°08' E 025°33'1718.2
2014-Oct-26 23:24N 38°06' E 025°11'3217.4
2014-Oct-26 21:33N 37°54' E 024°33'2518.1
2014-Oct-26 20:09N 37°38' E 024°08'1718.7
2014-Oct-26 19:14N 37°38' E 023°47'1318.6
2014-Oct-26 18:33N 37°48' E 023°38'8 8.3
2014-Oct-26 17:33N 37°56' E 023°38'0 0.0
2014-Oct-26 16:32N 37°56' E 023°38'0 0.0
2014-Oct-26 15:31N 37°56' E 023°38'0 0.0
2014-Oct-26 14:31N 37°56' E 023°38'0 0.0
2014-Oct-26 13:31N 37°56' E 023°38'0 0.0
2014-Oct-26 12:31N 37°56' E 023°38'0 0.0
2014-Oct-26 11:31N 37°56' E 023°38'0 0.0
2014-Oct-26 10:31N 37°56' E 023°38'0 0.0
2014-Oct-26 09:31N 37°56' E 023°38'0 0.0
2014-Oct-26 08:31N 37°56' E 023°38'0 0.0
2014-Oct-26 07:31N 37°56' E 023°38'0 0.0
2014-Oct-26 06:31N 37°56' E 023°38'0 0.0
2014-Oct-26 05:30N 37°56' E 023°38'0 0.0
2014-Oct-26 04:33N 37°56' E 023°38'0 0.0
2014-Oct-26 03:33N 37°56' E 023°38'0 0.0
2014-Oct-26 02:33N 37°56' E 023°38'0 0.0
2014-Oct-26 01:33N 37°56' E 023°38'0 0.0
2014-Oct-26 00:33N 37°56' E 023°38'0 0.0
2014-Oct-25 23:33N 37°56' E 023°38'0 0.0
2014-Oct-25 22:33N 37°56' E 023°38'0 0.0
2014-Oct-25 21:33N 37°56' E 023°38'0 0.0
2014-Oct-25 20:33N 37°56' E 023°38'0 0.0
2014-Oct-25 19:32N 37°56' E 023°38'0 0.0
2014-Oct-25 18:32N 37°56' E 023°38'0 0.0
2014-Oct-25 17:33N 37°56' E 023°38'0 0.0
2014-Oct-25 16:31N 37°56' E 023°38'0 0.0
2014-Oct-25 15:31N 37°56' E 023°38'0 0.0
2014-Oct-25 14:28N 37°56' E 023°38'0 0.0
2014-Oct-25 13:31N 37°56' E 023°38'0 0.0
2014-Oct-25 12:31N 37°56' E 023°38'0 0.0
2014-Oct-25 11:33N 37°56' E 023°38'0 0.0
2014-Oct-25 10:33N 37°56' E 023°38'0 0.0
2014-Oct-25 09:33N 37°56' E 023°38'0 0.0
2014-Oct-25 08:33N 37°56' E 023°38'0 0.0
2014-Oct-25 07:33N 37°56' E 023°38'0 0.0
2014-Oct-25 06:33N 37°56' E 023°38'0 0.0
2014-Oct-25 05:33N 37°56' E 023°38'1111.3
2014-Oct-25 04:33N 37°46' E 023°42'2924.8
2014-Oct-25 03:24N 37°25' E 024°07'1821.6
2014-Oct-25 02:33N 37°15' E 024°26'2323.4
2014-Oct-25 01:33N 37°00' E 024°49'2524.7
2014-Oct-25 00:33N 36°43' E 025°12'2323.1
2014-Oct-24 23:33N 36°23' E 025°26'9 8.6
2014-Oct-24 22:33N 36°32' E 025°23'2424.4
2014-Oct-24 21:33N 36°49' E 025°44'2424.2
2014-Oct-24 20:33N 37°03' E 026°09'2424.1
2014-Oct-24 19:33N 37°16' E 026°35'8 7.4
2014-Oct-24 18:32N 37°14' E 026°44'7 0.4
2014-Oct-24 02:25N 37°16' E 026°36'2 2.4
2014-Oct-24 01:33N 37°15' E 026°34'2323.0
2014-Oct-24 00:34N 37°03' E 026°10'2322.7
2014-Oct-23 23:34N 36°51' E 025°46'2222.3
2014-Oct-23 22:34N 36°35' E 025°27'1111.4
2014-Oct-23 21:34N 36°23' E 025°26'1413.8
2014-Oct-23 20:34N 36°35' E 025°18'2221.6
2014-Oct-23 19:34N 36°52' E 025°01'2322.6
2014-Oct-23 18:33N 37°08' E 024°40'2221.7
2014-Oct-23 17:33N 37°19' E 024°17'2621.9
2014-Oct-23 16:21N 37°35' E 023°50'1721.7
2014-Oct-23 15:33N 37°49' E 023°37'8 7.6
2014-Oct-23 14:33N 37°56' E 023°38'0 0.0
2014-Oct-23 13:33N 37°56' E 023°38'0 0.0
2014-Oct-23 12:33N 37°56' E 023°38'0 0.0
2014-Oct-23 11:33N 37°56' E 023°38'0 0.0
2014-Oct-23 10:33N 37°56' E 023°38'0 0.0
2014-Oct-23 09:33N 37°56' E 023°38'0 0.0
2014-Oct-23 08:33N 37°56' E 023°38'0 0.0
2014-Oct-23 07:33N 37°56' E 023°38'0 0.0
2014-Oct-23 06:34N 37°56' E 023°38'0 0.0
2014-Oct-23 05:33N 37°56' E 023°38'3 3.0
2014-Oct-23 04:33N 37°53' E 023°37'2221.3
2014-Oct-23 03:30N 37°36' E 023°55'2020.8
2014-Oct-23 02:33N 37°22' E 024°14'2020.3
2014-Oct-23 01:33N 37°12' E 024°35'2222.0
2014-Oct-23 00:33N 36°56' E 024°54'2221.9
2014-Oct-22 23:34N 36°41' E 025°13'2019.9
2014-Oct-22 22:34N 36°23' E 025°26'6 5.8
2014-Oct-22 21:34N 36°28' E 025°21'2121.1
2014-Oct-22 20:34N 36°36' E 025°45'2221.5
2014-Oct-22 19:34N 36°43' E 026°11'9 0.4
2014-Oct-22 00:27N 36°45' E 026°21'2022.5
2014-Oct-21 23:33N 36°39' E 025°58'2222.0
2014-Oct-21 22:33N 36°33' E 025°31'1010.4
2014-Oct-21 21:33N 36°23' E 025°26'1212.1
2014-Oct-21 20:33N 36°34' E 025°18'2221.7
2014-Oct-21 19:33N 36°51' E 025°02'2222.1
2014-Oct-21 18:33N 37°06' E 024°42'2222.0
2014-Oct-21 17:33N 37°18' E 024°19'2221.9
2014-Oct-21 16:33N 37°32' E 023°57'2121.2
2014-Oct-21 15:33N 37°47' E 023°39'9 9.4
2014-Oct-21 14:33N 37°56' E 023°38'0 0.0
2014-Oct-21 13:33N 37°56' E 023°38'0 0.0
2014-Oct-21 12:33N 37°56' E 023°38'0 0.0
2014-Oct-21 11:33N 37°56' E 023°38'0 0.0
2014-Oct-21 10:33N 37°56' E 023°38'0 0.0
2014-Oct-21 09:33N 37°56' E 023°38'0 0.0
2014-Oct-21 08:33N 37°56' E 023°38'0 0.0
2014-Oct-21 07:33N 37°56' E 023°38'0 0.0
2014-Oct-21 06:33N 37°56' E 023°38'0 0.0
2014-Oct-21 05:33N 37°56' E 023°38'0 0.0
2014-Oct-21 04:33N 37°56' E 023°38'1716.7
2014-Oct-21 03:33N 37°41' E 023°47'8822.0
2014-Oct-20 23:32N 36°44' E 025°11'  

Dump ship's entire track history